Map

Track Data

SID SEASON NUMBER BASIN SUBBASIN NAME ISO_TIME NATURE LAT LON WMO_WIND WMO_PRES WMO_AGENCY TRACK_TYPE DIST2LAND LANDFALL IFLAG USA_AGENCY USA_ATCF_ID USA_LAT USA_LON USA_RECORD USA_STATUS USA_WIND USA_PRES USA_SSHS USA_R34_NE USA_R34_SE USA_R34_SW USA_R34_NW USA_R50_NE USA_R50_SE USA_R50_SW USA_R50_NW USA_R64_NE USA_R64_SE USA_R64_SW USA_R64_NW USA_POCI USA_ROCI USA_RMW USA_EYE TOKYO_LAT TOKYO_LON TOKYO_GRADE TOKYO_WIND TOKYO_PRES TOKYO_R50_DIR TOKYO_R50_LONG TOKYO_R50_SHORT TOKYO_R30_DIR TOKYO_R30_LONG TOKYO_R30_SHORT TOKYO_LAND CMA_LAT CMA_LON CMA_CAT CMA_WIND CMA_PRES HKO_LAT HKO_LON HKO_CAT HKO_WIND HKO_PRES NEWDELHI_LAT NEWDELHI_LON NEWDELHI_GRADE NEWDELHI_WIND NEWDELHI_PRES NEWDELHI_CI NEWDELHI_DP NEWDELHI_POCI REUNION_LAT REUNION_LON REUNION_TYPE REUNION_WIND REUNION_PRES REUNION_TNUM REUNION_CI REUNION_RMW REUNION_R34_NE REUNION_R34_SE REUNION_R34_SW REUNION_R34_NW REUNION_R50_NE REUNION_R50_SE REUNION_R50_SW REUNION_R50_NW REUNION_R64_NE REUNION_R64_SE REUNION_R64_SW REUNION_R64_NW BOM_LAT BOM_LON BOM_TYPE BOM_WIND BOM_PRES BOM_TNUM BOM_CI BOM_RMW BOM_R34_NE BOM_R34_SE BOM_R34_SW BOM_R34_NW BOM_R50_NE BOM_R50_SE BOM_R50_SW BOM_R50_NW BOM_R64_NE BOM_R64_SE BOM_R64_SW BOM_R64_NW BOM_ROCI BOM_POCI BOM_EYE BOM_POS_METHOD BOM_PRES_METHOD NADI_LAT NADI_LON NADI_CAT NADI_WIND NADI_PRES WELLINGTON_LAT WELLINGTON_LON WELLINGTON_WIND WELLINGTON_PRES DS824_LAT DS824_LON DS824_STAGE DS824_WIND DS824_PRES TD9636_LAT TD9636_LON TD9636_STAGE TD9636_WIND TD9636_PRES TD9635_LAT TD9635_LON TD9635_WIND TD9635_PRES TD9635_ROCI NEUMANN_LAT NEUMANN_LON NEUMANN_CLASS NEUMANN_WIND NEUMANN_PRES MLC_LAT MLC_LON MLC_CLASS MLC_WIND MLC_PRES USA_GUST BOM_GUST BOM_GUST_PER REUNION_GUST REUNION_GUST_PER USA_SEAHGT USA_SEARAD_NE USA_SEARAD_SE USA_SEARAD_SW USA_SEARAD_NW STORM_SPEED STORM_DIR
1943207N28272 1943 46 NA GM NOT_NAMED 1943-07-25 18:00:00 TS 28.0000 -87.7000 35 hurdat_atl main 176 127 O_____________ hurdat_atl AL011943 28.0000 -87.7000 TS 35 0 11 277
1943207N28272 1943 46 NA GM NOT_NAMED 1943-07-25 21:00:00 TS 28.0629 -88.2947 main 127 102 P_____________ AL011943 28.0629 -88.2947 TS 40 0 11 275
1943207N28272 1943 46 NA GM NOT_NAMED 1943-07-26 00:00:00 TS 28.1000 -88.9000 45 hurdat_atl main 102 100 O_____________ hurdat_atl AL011943 28.1000 -88.9000 TS 45 0 11 272
1943207N28272 1943 46 NA GM NOT_NAMED 1943-07-26 03:00:00 TS 28.0999 -89.5152 main 107 107 P_____________ AL011943 28.0999 -89.5152 TS 47 0 11 270
1943207N28272 1943 46 NA GM NOT_NAMED 1943-07-26 06:00:00 TS 28.1000 -90.1000 50 hurdat_atl main 111 111 O_____________ hurdat_atl AL011943 28.1000 -90.1000 TS 50 0 10 272
1943207N28272 1943 46 NA GM NOT_NAMED 1943-07-26 09:00:00 TS 28.1347 -90.6225 main 111 100 P_____________ AL011943 28.1347 -90.6225 TS 55 0 9 276
1943207N28272 1943 46 NA GM NOT_NAMED 1943-07-26 12:00:00 TS 28.2000 -91.1000 60 hurdat_atl main 102 101 O_____________ hurdat_atl AL011943 28.2000 -91.1000 TS 60 0 9 281
1943207N28272 1943 46 NA GM NOT_NAMED 1943-07-26 15:00:00 TS 28.2924 -91.5725 main 111 111 P_____________ AL011943 28.2924 -91.5725 TS 65 1 8 284
1943207N28272 1943 46 NA GM NOT_NAMED 1943-07-26 18:00:00 TS 28.4000 -92.0000 70 hurdat_atl main 125 111 O_____________ hurdat_atl AL011943 28.4000 -92.0000 HU 70 1 7 286
1943207N28272 1943 46 NA GM NOT_NAMED 1943-07-26 21:00:00 TS 28.4923 -92.3652 main 112 104 P_____________ AL011943 28.4923 -92.3652 HU 75 1 6 288
1943207N28272 1943 46 NA GM NOT_NAMED 1943-07-27 00:00:00 TS 28.6000 -92.7000 80 hurdat_atl main 107 101 O_____________ hurdat_atl AL011943 28.6000 -92.7000 HU 80 1 7 292
1943207N28272 1943 46 NA GM NOT_NAMED 1943-07-27 03:00:00 TS 28.7425 -93.0575 main 111 97 P_____________ AL011943 28.7425 -93.0575 HU 85 2 7 296
1943207N28272 1943 46 NA GM NOT_NAMED 1943-07-27 06:00:00 TS 28.9000 -93.4000 90 hurdat_atl main 97 78 O_____________ hurdat_atl AL011943 28.9000 -93.4000 HU 90 2 6 298
1943207N28272 1943 46 NA GM NOT_NAMED 1943-07-27 09:00:00 TS 29.0499 -93.7076 main 78 55 P_____________ AL011943 29.0499 -93.7076 HU 90 2 6 300
1943207N28272 1943 46 NA GM NOT_NAMED 1943-07-27 12:00:00 TS 29.2000 -94.0000 90 hurdat_atl main 55 34 O_____________ hurdat_atl AL011943 29.2000 -94.0000 HU 90 2 6 300
1943207N28272 1943 46 NA GM NOT_NAMED 1943-07-27 15:00:00 TS 29.3575 -94.3075 main 24 0 P_____________ AL011943 29.3575 -94.3075 HU 90 2 6 300
1943207N28272 1943 46 NA GM NOT_NAMED 1943-07-27 18:00:00 TS 29.5000 -94.6000 90 967 hurdat_atl main 0 0 O_____________ hurdat_atl AL011943 29.5000 -94.6000 L HU 90 967 2 5 298
1943207N28272 1943 46 NA GM NOT_NAMED 1943-07-27 21:00:00 TS 29.6074 -94.8576 main 9 0 P_____________ AL011943 29.6074 -94.8576 HU 82 971 1 5 295
1943207N28272 1943 46 NA NA NOT_NAMED 1943-07-28 00:00:00 TS 29.7000 -95.1000 75 975 hurdat_atl main 0 0 O_____________ hurdat_atl AL011943 29.7000 -95.1000 HU 75 975 1 5 293
1943207N28272 1943 46 NA NA NOT_NAMED 1943-07-28 03:00:00 TS 29.7925 -95.3576 main 0 0 P_____________ AL011943 29.7925 -95.3576 HU 62 0 5 295
1943207N28272 1943 46 NA NA NOT_NAMED 1943-07-28 06:00:00 TS 29.9000 -95.6000 50 hurdat_atl main 0 0 O_____________ hurdat_atl AL011943 29.9000 -95.6000 TS 50 0 5 303
1943207N28272 1943 46 NA NA NOT_NAMED 1943-07-28 09:00:00 TS 30.0424 -95.8075 main 0 0 P_____________ AL011943 30.0424 -95.8075 TS 45 0 5 311
1943207N28272 1943 46 NA NA NOT_NAMED 1943-07-28 12:00:00 TS 30.2000 -96.0000 40 hurdat_atl main 0 0 O_____________ hurdat_atl AL011943 30.2000 -96.0000 TS 40 0 5 311
1943207N28272 1943 46 NA NA NOT_NAMED 1943-07-28 15:00:00 TS 30.3425 -96.2001 main 0 0 P_____________ AL011943 30.3425 -96.2001 TS 40 0 5 311
1943207N28272 1943 46 NA NA NOT_NAMED 1943-07-28 18:00:00 TS 30.5000 -96.4000 40 hurdat_atl main 0 0 O_____________ hurdat_atl AL011943 30.5000 -96.4000 TS 40 0 5 314
1943207N28272 1943 46 NA NA NOT_NAMED 1943-07-28 21:00:00 TS 30.6850 -96.6075 main 0 0 P_____________ AL011943 30.6850 -96.6075 TS 37 0 5 319
1943207N28272 1943 46 NA NA NOT_NAMED 1943-07-29 00:00:00 TS 30.9000 -96.8000 35 hurdat_atl main 0 0 O_____________ hurdat_atl AL011943 30.9000 -96.8000 TS 35 0 5 326
1943207N28272 1943 46 NA NA NOT_NAMED 1943-07-29 03:00:00 TS 31.1350 -96.9576 main 0 0 P_____________ AL011943 31.1350 -96.9576 TS 32 -1 6 333
1943207N28272 1943 46 NA NA NOT_NAMED 1943-07-29 06:00:00 TS 31.4000 -97.1000 30 hurdat_atl main 0 0 O_____________ hurdat_atl AL011943 31.4000 -97.1000 TD 30 -1 6 336
1943207N28272 1943 46 NA NA NOT_NAMED 1943-07-29 09:00:00 TS 31.7000 -97.2500 main 0 0 P_____________ AL011943 31.7000 -97.2500 TD 30 -1 7 337
1943207N28272 1943 46 NA NA NOT_NAMED 1943-07-29 12:00:00 TS 32.0000 -97.4000 30 hurdat_atl main 0 0 O_____________ hurdat_atl AL011943 32.0000 -97.4000 TD 30 -1 6 335
1943207N28272 1943 46 NA NA NOT_NAMED 1943-07-29 15:00:00 TS 32.2575 -97.5501 main 0 0 P_____________ AL011943 32.2575 -97.5501 TD 27 -1 6 333
1943207N28272 1943 46 NA NA NOT_NAMED 1943-07-29 18:00:00 TS 32.5000 -97.7000 25 hurdat_atl main 0 0 O_____________ hurdat_atl AL011943 32.5000 -97.7000 TD 25 -1 6 333
1943207N28272 1943 46 NA NA NOT_NAMED 1943-07-29 21:00:00 TS 32.7475 -97.8498 main 0 0 P_____________ AL011943 32.7475 -97.8498 TD 25 -1 6 333
1943207N28272 1943 46 NA NA NOT_NAMED 1943-07-30 00:00:00 TS 33.0000 -98.0000 25 hurdat_atl main 0 O_____________ hurdat_atl AL011943 33.0000 -98.0000 TD 25 -1 6 333

About IBTrACS Database

This database is a web-friendly format of International Best Track Archive for Climate Stewardship (IBTrACS), a global best track data archive curated by NOAA dating back to 1842.

Updated: 2021-11-26